Time;durP1;ratioP1;P1;durP2;ratioP2;P2;SDS_P1;SDS_P2;PMS_P1;PMS_P2;Temp;Humidity;BMP_temperature;BMP_pressure;BME280_temperature;BME280_humidity;BME280_pressure;Samples;Min_cycle;Max_cycle;Signal;HPM_P1;HPM_P2
2023/04/13 00:00:10;;;;;;;0.40;0.40;;;;;;;8.05;100.00;95719.72;5037797;28;20269;-61
2023/04/13 00:02:37;;;;;;;0.63;0.63;;;;;;;8.06;100.00;95719.59;5041205;28;20206;-61
2023/04/13 00:05:06;;;;;;;0.97;0.60;;;;;;;8.07;100.00;95723.06;5046173;28;20204;-60
2023/04/13 00:07:37;;;;;;;0.43;0.43;;;;;;;8.08;100.00;95715.00;5059986;28;20223;-60
2023/04/13 00:10:05;;;;;;;1.40;0.87;;;;;;;8.13;100.00;95714.53;5042296;28;20254;-60
2023/04/13 00:12:32;;;;;;;0.53;0.53;;;;;;;8.26;100.00;95720.25;5049082;28;20235;-60
2023/04/13 00:14:58;;;;;;;1.23;0.50;;;;;;;8.17;100.00;95718.53;5036868;28;20258;-61
2023/04/13 00:17:25;;;;;;;1.73;0.50;;;;;;;8.26;100.00;95720.25;5049177;28;20203;-59
2023/04/13 00:19:52;;;;;;;1.17;0.57;;;;;;;8.21;100.00;95722.53;5045020;28;20207;-61
2023/04/13 00:22:19;;;;;;;2.87;0.70;;;;;;;8.14;100.00;95721.47;5037997;28;20246;-60
2023/04/13 00:24:47;;;;;;;0.60;0.30;;;;;;;8.01;100.00;95727.94;5043575;28;20212;-61
2023/04/13 00:27:13;;;;;;;1.00;0.80;;;;;;;7.98;100.00;95722.97;5036032;28;20213;-60
2023/04/13 00:29:39;;;;;;;1.03;0.40;;;;;;;7.92;100.00;95712.22;5048539;28;20639;-60
2023/04/13 00:32:06;;;;;;;1.43;0.50;;;;;;;7.93;100.00;95714.72;5042117;28;20223;-60
2023/04/13 00:34:32;;;;;;;2.00;0.60;;;;;;;7.95;100.00;95714.53;5046421;28;20231;-60
2023/04/13 00:37:00;;;;;;;3.33;0.80;;;;;;;7.94;100.00;95705.81;5048783;28;20270;-59
2023/04/13 00:39:29;;;;;;;0.87;0.40;;;;;;;7.97;100.00;95712.59;5040196;28;20645;-59
2023/04/13 00:58:52;;;;;;;1.90;0.70;;;;;;;7.63;100.00;95696.63;5043542;28;20253;-60
2023/04/13 01:01:19;;;;;;;2.10;0.70;;;;;;;7.65;100.00;95697.28;5043184;28;20233;-60
2023/04/13 01:03:47;;;;;;;2.97;0.73;;;;;;;7.59;100.00;95686.53;5039230;28;20210;-60
2023/04/13 01:06:19;;;;;;;2.23;0.60;;;;;;;7.58;100.00;95685.69;5038866;28;20199;-60
2023/04/13 01:08:48;;;;;;;1.07;0.70;;;;;;;7.50;100.00;95690.88;5039665;28;20287;-59
2023/04/13 01:11:19;;;;;;;1.03;0.50;;;;;;;7.49;100.00;95690.06;5052898;28;20257;-61
2023/04/13 01:13:51;;;;;;;0.70;0.70;;;;;;;7.53;98.07;95690.59;5038965;28;20222;-60
2023/04/13 01:16:21;;;;;;;0.90;0.47;;;;;;;7.57;97.77;95691.94;5036264;28;20219;-59
2023/04/13 01:18:53;;;;;;;1.67;0.70;;;;;;;7.62;99.33;95689.69;5039152;28;20222;-60
2023/04/13 01:21:23;;;;;;;0.70;0.70;;;;;;;7.50;99.53;95690.88;5040357;28;20218;-60
2023/04/13 01:23:56;;;;;;;0.87;0.60;;;;;;;7.49;99.07;95691.84;5034715;28;20655;-59
2023/04/13 01:26:24;;;;;;;0.67;0.57;;;;;;;7.45;98.77;95695.75;5046285;28;20199;-59
2023/04/13 01:28:52;;;;;;;1.63;0.70;;;;;;;7.48;99.16;95703.34;5052407;28;20532;-59
2023/04/13 01:31:19;;;;;;;3.33;0.80;;;;;;;7.45;100.00;95709.72;5034573;28;20311;-59
2023/04/13 01:33:46;;;;;;;2.37;0.90;;;;;;;7.42;100.00;95706.56;5042829;28;20245;-59
2023/04/13 01:36:13;;;;;;;1.70;0.80;;;;;;;7.41;100.00;95707.53;5054053;28;20203;-59
2023/04/13 01:38:39;;;;;;;1.13;0.70;;;;;;;7.44;100.00;95713.31;5056350;28;20290;-59
2023/04/13 01:41:07;;;;;;;0.57;0.57;;;;;;;7.38;100.00;95718.34;5041001;28;20207;-59
2023/04/13 01:43:34;;;;;;;0.60;0.60;;;;;;;7.37;100.00;95724.56;5055971;28;20211;-59
2023/04/13 01:46:04;;;;;;;1.80;0.80;;;;;;;7.34;100.00;95716.97;5057088;28;20204;-60
2023/04/13 01:48:36;;;;;;;3.37;0.70;;;;;;;7.35;99.27;95721.28;5051325;28;20949;-60
2023/04/13 01:51:07;;;;;;;2.90;0.93;;;;;;;7.29;100.00;95724.50;5050764;28;20211;-59
2023/04/13 01:53:37;;;;;;;1.17;0.60;;;;;;;7.30;97.55;95737.47;5045827;28;20203;-59
2023/04/13 01:56:04;;;;;;;1.97;0.80;;;;;;;7.30;98.13;95736.66;5060648;28;20202;-59
2023/04/13 01:58:32;;;;;;;1.53;0.70;;;;;;;7.35;100.00;95734.41;5058215;28;20626;-59
2023/04/13 02:00:58;;;;;;;1.87;0.60;;;;;;;7.34;100.00;95735.38;5054935;28;20264;-59
2023/04/13 02:03:27;;;;;;;2.60;0.70;;;;;;;7.33;100.00;95742.44;5040850;28;20234;-59
2023/04/13 02:05:55;;;;;;;1.13;0.50;;;;;;;7.27;98.92;95739.56;5055438;28;20581;-59
2023/04/13 02:08:21;;;;;;;2.40;0.80;;;;;;;7.37;98.49;95732.47;5054573;28;20539;-59
2023/04/13 02:10:49;;;;;;;0.70;0.70;;;;;;;7.41;100.00;95733.84;5052650;28;20215;-59
2023/04/13 02:13:15;;;;;;;0.93;0.70;;;;;;;7.40;100.00;95735.63;5040940;28;20204;-59
2023/04/13 02:15:43;;;;;;;2.67;0.57;;;;;;;7.39;100.00;95733.16;5041785;28;20234;-59
2023/04/13 02:18:10;;;;;;;1.33;0.60;;;;;;;7.40;100.00;95735.63;5059513;28;20202;-59
2023/04/13 02:20:42;;;;;;;3.97;1.10;;;;;;;7.42;100.00;95740.75;5060629;28;20203;-59
2023/04/13 02:23:09;;;;;;;1.83;0.80;;;;;;;7.38;100.00;95740.22;5052122;28;20223;-60
2023/04/13 02:25:36;;;;;;;2.93;0.80;;;;;;;7.40;99.22;95738.25;5056085;28;20211;-59
2023/04/13 02:28:03;;;;;;;4.30;1.00;;;;;;;7.45;95.90;95737.84;5060261;28;20227;-59
2023/04/13 02:30:30;;;;;;;2.17;0.90;;;;;;;7.46;96.02;95737.69;5060331;28;20210;-60
2023/04/13 02:32:56;;;;;;;1.73;0.90;;;;;;;7.54;95.33;95747.50;5060265;28;20288;-59
2023/04/13 02:35:24;;;;;;;1.73;1.10;;;;;;;7.51;88.53;95731.97;5059837;28;20250;-60
2023/04/13 02:37:52;;;;;;;1.43;0.80;;;;;;;7.45;91.46;95735.19;5062766;28;20202;-59
2023/04/13 02:40:19;;;;;;;1.53;0.80;;;;;;;7.40;90.71;95738.25;5064065;28;20222;-59
2023/04/13 02:42:47;;;;;;;3.53;0.77;;;;;;;7.43;88.92;95731.91;5060327;28;20211;-59
2023/04/13 02:45:16;;;;;;;4.23;1.27;;;;;;;7.40;95.39;95732.19;5057730;28;20210;-59
2023/04/13 02:47:43;;;;;;;2.60;0.70;;;;;;;7.39;93.33;95733.16;5063469;28;20210;-59
2023/04/13 02:50:10;;;;;;;3.00;0.50;;;;;;;7.36;92.85;95730.84;5060894;28;20238;-60
2023/04/13 02:52:37;;;;;;;1.77;0.80;;;;;;;7.44;91.87;95744.06;5059559;28;20234;-59
2023/04/13 02:55:07;;;;;;;3.07;0.80;;;;;;;7.39;89.94;95735.78;5056644;28;20641;-59
2023/04/13 02:57:34;;;;;;;2.10;0.97;;;;;;;7.28;98.72;95739.44;5057074;28;20199;-59
2023/04/13 03:00:00;;;;;;;2.63;1.33;;;;;;;7.36;94.17;95733.47;5053764;28;20208;-59
2023/04/13 03:02:28;;;;;;;2.83;0.80;;;;;;;7.32;96.73;95734.72;5057117;28;20199;-59
2023/04/13 03:04:55;;;;;;;1.57;0.97;;;;;;;7.36;97.06;95741.34;5043142;28;20212;-58
2023/04/13 03:07:23;;;;;;;2.30;1.07;;;;;;;7.31;92.75;95727.78;5054018;28;20509;-59
2023/04/13 03:09:50;;;;;;;2.53;0.63;;;;;;;7.30;92.81;95731.38;5056812;28;20203;-59
2023/04/13 03:12:18;;;;;;;2.73;0.83;;;;;;;7.12;89.47;95730.53;5046697;28;20228;-59
2023/04/13 03:14:45;;;;;;;2.83;0.97;;;;;;;7.23;88.12;95738.19;5036590;28;20590;-60
2023/04/13 03:17:12;;;;;;;1.13;0.70;;;;;;;7.23;91.61;95740.81;5038622;28;20223;-59
2023/04/13 03:19:38;;;;;;;3.17;0.90;;;;;;;7.24;92.15;95742.50;5052305;28;20214;-59
2023/04/13 03:22:05;;;;;;;2.07;0.73;;;;;;;7.22;92.17;95739.19;5056723;28;20199;-60
2023/04/13 03:24:31;;;;;;;3.20;0.70;;;;;;;7.17;98.49;95750.13;5052732;28;20204;-59
2023/04/13 03:26:58;;;;;;;1.27;0.67;;;;;;;7.13;100.00;95740.03;5057320;28;20206;-59
2023/04/13 03:29:25;;;;;;;2.67;0.97;;;;;;;7.06;100.00;95747.69;5045420;28;20211;-60
2023/04/13 03:31:52;;;;;;;2.80;0.70;;;;;;;7.03;100.00;95747.13;5045561;28;20246;-60
2023/04/13 03:34:19;;;;;;;4.23;1.17;;;;;;;7.00;100.00;95756.97;5048972;28;20305;-59
2023/04/13 03:36:45;;;;;;;2.57;0.90;;;;;;;7.01;100.00;95748.09;5045262;28;20203;-59
2023/04/13 03:39:12;;;;;;;4.00;0.77;;;;;;;6.96;98.50;95744.25;5038536;28;20212;-61
2023/04/13 03:41:38;;;;;;;2.47;1.10;;;;;;;6.92;94.07;95746.34;5036145;28;20215;-59
2023/04/13 03:44:06;;;;;;;2.37;0.80;;;;;;;6.91;92.71;95744.69;5037028;28;20207;-59
2023/04/13 03:46:36;;;;;;;1.87;1.00;;;;;;;6.91;93.93;95744.69;5062154;28;20210;-59
2023/04/13 03:49:03;;;;;;;3.20;1.00;;;;;;;6.92;91.79;95748.13;5043933;28;20203;-59
2023/04/13 03:51:30;;;;;;;2.30;1.00;;;;;;;6.87;94.87;95745.94;5043914;28;20564;-60
2023/04/13 03:53:56;;;;;;;1.53;0.80;;;;;;;6.74;89.40;95741.94;5055220;28;20214;-60
2023/04/13 03:56:23;;;;;;;2.60;0.70;;;;;;;6.78;89.32;95735.44;5055709;28;20210;-59
2023/04/13 03:58:50;;;;;;;4.10;1.20;;;;;;;6.78;88.01;95744.16;5036531;28;20266;-60
2023/04/13 04:01:16;;;;;;;3.60;1.23;;;;;;;6.78;87.13;95741.53;5059269;28;20203;-59
2023/04/13 04:03:44;;;;;;;1.90;0.80;;;;;;;6.81;86.81;95746.50;5050134;28;20199;-60
2023/04/13 04:06:11;;;;;;;3.93;1.10;;;;;;;6.79;87.52;95747.63;5045057;28;20211;-58
2023/04/13 04:08:37;;;;;;;1.93;0.80;;;;;;;6.71;88.62;95750.97;5049361;28;20211;-59
2023/04/13 04:11:04;;;;;;;8.50;1.10;;;;;;;6.67;89.35;95746.94;5040487;28;20199;-59
2023/04/13 04:13:31;;;;;;;3.73;1.37;;;;;;;6.62;92.87;95741.31;5055892;28;20230;-59
2023/04/13 04:15:58;;;;;;;3.47;1.20;;;;;;;6.62;93.94;95746.56;5042410;28;20203;-59
2023/04/13 04:18:24;;;;;;;2.67;0.73;;;;;;;6.47;94.21;95742.69;5042646;28;20294;-59
2023/04/13 04:20:53;;;;;;;2.63;0.93;;;;;;;6.42;97.85;95750.16;5055703;28;20203;-59
2023/04/13 04:23:19;;;;;;;3.00;1.07;;;;;;;6.42;97.16;95744.91;5048064;28;20212;-59
2023/04/13 04:25:46;;;;;;;2.57;1.23;;;;;;;6.37;99.31;95757.63;5048643;28;20215;-59
2023/04/13 04:28:14;;;;;;;1.57;0.80;;;;;;;6.31;98.27;95753.75;5049146;28;20207;-60
2023/04/13 04:30:44;;;;;;;2.33;0.73;;;;;;;6.27;100.00;95755.00;5055173;28;20302;-59
2023/04/13 04:33:11;;;;;;;3.37;1.43;;;;;;;6.25;98.05;95766.59;5055067;28;20227;-59
2023/04/13 04:35:42;;;;;;;3.17;1.13;;;;;;;6.19;100.00;95769.78;5055036;28;20603;-59
2023/04/13 04:38:09;;;;;;;1.87;0.90;;;;;;;6.04;100.00;95776.41;5044717;28;20211;-60
2023/04/13 04:40:36;;;;;;;1.93;1.00;;;;;;;6.09;100.00;95776.84;5035009;28;20215;-59
2023/04/13 04:43:03;;;;;;;2.20;0.90;;;;;;;6.12;100.00;95776.56;5035446;28;20262;-59
2023/04/13 04:45:31;;;;;;;2.53;1.10;;;;;;;6.09;100.00;95766.34;5051593;28;20198;-60
2023/04/13 04:47:58;;;;;;;1.33;1.13;;;;;;;6.11;100.00;95769.66;5051842;28;20249;-60
2023/04/13 04:50:25;;;;;;;1.60;0.90;;;;;;;6.13;100.00;95773.78;5041641;28;20199;-60
2023/04/13 04:52:52;;;;;;;3.00;1.03;;;;;;;6.18;100.00;95776.84;5046501;28;20266;-59
2023/04/13 04:55:20;;;;;;;2.93;1.10;;;;;;;6.15;100.00;95776.28;5038215;28;20217;-59
2023/04/13 04:57:48;;;;;;;2.20;0.93;;;;;;;6.17;100.00;95772.53;5044936;28;20211;-59
2023/04/13 05:00:16;;;;;;;2.27;1.00;;;;;;;6.20;100.00;95781.97;5036943;28;20636;-59
2023/04/13 05:02:42;;;;;;;2.40;1.20;;;;;;;6.11;100.00;95783.59;5061631;28;20529;-59
2023/04/13 05:05:10;;;;;;;2.50;0.90;;;;;;;6.08;100.00;95788.28;5042063;28;20532;-59
2023/04/13 05:07:37;;;;;;;2.83;1.00;;;;;;;6.08;100.00;95793.53;5045015;28;20624;-59
2023/04/13 05:10:04;;;;;;;1.83;0.80;;;;;;;6.04;100.00;95802.66;5048997;28;20215;-60
2023/04/13 05:12:32;;;;;;;1.10;0.87;;;;;;;6.10;100.00;95800.31;5041810;28;20357;-60
2023/04/13 05:14:58;;;;;;;2.93;1.20;;;;;;;6.11;100.00;95803.75;5036309;28;20214;-59
2023/04/13 05:17:25;;;;;;;3.97;1.07;;;;;;;6.11;100.00;95809.00;5046956;28;20217;-60
2023/04/13 05:19:52;;;;;;;2.97;1.10;;;;;;;6.08;100.00;95804.03;5056033;28;20543;-60
2023/04/13 05:22:18;;;;;;;7.20;0.97;;;;;;;6.09;100.00;95814.41;5056436;28;20195;-59
2023/04/13 05:24:45;;;;;;;1.80;1.03;;;;;;;6.16;100.00;95814.69;5047939;28;20204;-59
2023/04/13 05:27:12;;;;;;;3.33;1.07;;;;;;;6.16;100.00;95819.94;5052621;28;20542;-59
2023/04/13 05:29:40;;;;;;;3.13;1.10;;;;;;;6.21;100.00;95820.34;5041006;28;20701;-59
2023/04/13 05:32:07;;;;;;;3.03;1.30;;;;;;;6.24;97.24;95820.06;5049208;28;20795;-59
2023/04/13 05:34:36;;;;;;;1.37;1.10;;;;;;;6.29;95.04;95823.13;5056913;28;20227;-59
2023/04/13 05:37:04;;;;;;;3.07;1.13;;;;;;;6.39;89.64;95819.53;5052865;28;20218;-59
2023/04/13 05:39:30;;;;;;;3.77;1.07;;;;;;;6.41;90.91;95816.78;5054828;28;20217;-58
2023/04/13 05:41:57;;;;;;;4.37;1.20;;;;;;;6.46;89.56;95823.28;5053538;28;20203;-60
2023/04/13 05:44:23;;;;;;;4.00;0.90;;;;;;;6.52;90.46;95828.97;5048640;28;20227;-59
2023/04/13 05:46:54;;;;;;;2.97;1.13;;;;;;;6.68;87.36;95835.31;5046073;28;20219;-60
2023/04/13 05:49:20;;;;;;;4.83;1.03;;;;;;;6.69;88.56;95828.25;5036097;28;20596;-58
2023/04/13 05:51:47;;;;;;;3.23;1.17;;;;;;;6.64;88.56;95826.03;5034954;28;20756;-59
2023/04/13 05:54:16;;;;;;;2.83;1.03;;;;;;;6.72;88.80;95831.44;5051610;28;20840;-62
2023/04/13 05:56:42;;;;;;;3.53;1.43;;;;;;;6.79;86.95;95816.78;5059531;28;20294;-61
2023/04/13 05:59:10;;;;;;;1.73;1.30;;;;;;;6.91;87.29;95820.06;5052066;28;20255;-61
2023/04/13 06:01:36;;;;;;;1.83;0.90;;;;;;;7.03;85.24;95826.00;5061341;28;20196;-61
2023/04/13 06:04:04;;;;;;;3.43;1.00;;;;;;;7.16;85.03;95822.09;5054021;28;20198;-60
2023/04/13 06:06:31;;;;;;;4.97;1.70;;;;;;;7.25;84.13;95820.41;5050578;28;20222;-60
2023/04/13 06:08:58;;;;;;;2.63;1.20;;;;;;;7.33;82.54;95820.53;5054272;28;20636;-60
2023/04/13 06:11:25;;;;;;;2.50;1.10;;;;;;;7.35;81.95;95815.94;5054486;28;20221;-60
2023/04/13 06:13:51;;;;;;;5.07;1.10;;;;;;;7.28;82.24;95817.50;5053985;28;20240;-59
2023/04/13 06:16:18;;;;;;;3.50;1.20;;;;;;;7.37;79.06;95816.63;5054286;28;20207;-61
2023/04/13 06:18:45;;;;;;;2.17;1.00;;;;;;;7.43;81.95;95813.44;5054027;28;20242;-60
2023/04/13 06:21:12;;;;;;;3.27;1.57;;;;;;;7.40;81.55;95821.63;5056812;28;20306;-59
2023/04/13 06:23:39;;;;;;;2.03;0.90;;;;;;;7.41;80.53;95820.63;5058321;28;20207;-60
2023/04/13 06:26:06;;;;;;;1.23;0.90;;;;;;;7.45;81.54;95824.63;5057863;28;20214;-59
2023/04/13 06:28:33;;;;;;;2.23;1.00;;;;;;;7.49;80.14;95826.84;5057976;28;20218;-62
2023/04/13 06:30:59;;;;;;;3.77;0.93;;;;;;;7.55;76.80;95814.91;5066010;28;20211;-58
2023/04/13 06:33:26;;;;;;;3.27;1.57;;;;;;;7.52;80.28;95817.81;5057162;28;20247;-57
2023/04/13 06:35:53;;;;;;;1.97;1.03;;;;;;;7.61;77.43;95803.81;5067744;28;20530;-57
2023/04/13 06:38:20;;;;;;;2.07;0.90;;;;;;;8.02;76.61;95808.56;5067752;28;20638;-57
2023/04/13 06:40:49;;;;;;;2.20;1.10;;;;;;;8.16;75.16;95809.03;5061367;28;20547;-58
2023/04/13 06:43:15;;;;;;;3.23;1.17;;;;;;;8.59;73.66;95809.19;5060681;28;20190;-58
2023/04/13 06:45:42;;;;;;;4.03;1.20;;;;;;;9.21;73.06;95802.88;5060286;28;20203;-58
2023/04/13 06:48:08;;;;;;;3.93;1.27;;;;;;;9.64;68.27;95809.06;5062079;28;20215;-58
2023/04/13 06:50:36;;;;;;;2.27;0.83;;;;;;;10.01;69.96;95796.38;5057196;28;20635;-58
2023/04/13 06:53:02;;;;;;;4.53;1.23;;;;;;;10.23;67.00;95795.81;5057668;28;20238;-57
2023/04/13 06:55:30;;;;;;;1.07;0.87;;;;;;;9.89;65.89;95784.44;5069691;28;20207;-59
2023/04/13 06:57:57;;;;;;;3.40;1.23;;;;;;;9.91;66.75;95791.22;5067692;28;20203;-58
2023/04/13 07:00:23;;;;;;;4.00;1.30;;;;;;;9.88;69.26;95780.97;5064295;28;20211;-58
2023/04/13 07:02:52;;;;;;;2.10;1.10;;;;;;;9.87;69.15;95791.69;5048686;28;20204;-59
2023/04/13 07:05:18;;;;;;;3.63;1.23;;;;;;;10.11;65.37;95783.03;5067988;28;20221;-58
2023/04/13 07:07:45;;;;;;;3.07;1.10;;;;;;;10.20;64.49;95774.19;5079914;28;20203;-60
2023/04/13 07:10:11;;;;;;;5.13;1.47;;;;;;;10.17;66.84;95779.75;5070141;28;20215;-60
2023/04/13 07:12:39;;;;;;;3.37;1.13;;;;;;;10.14;66.97;95778.28;5067274;28;20226;-57
2023/04/13 07:15:08;;;;;;;5.30;1.53;;;;;;;10.06;66.47;95780.84;5047039;28;20218;-58
2023/04/13 07:17:35;;;;;;;2.57;1.40;;;;;;;10.10;67.22;95781.34;5050344;28;20226;-59
2023/04/13 07:20:02;;;;;;;3.30;1.07;;;;;;;10.12;66.05;95782.88;5037228;28;20208;-59
2023/04/13 07:22:30;;;;;;;6.50;2.17;;;;;;;10.21;65.29;95781.09;5053680;28;20221;-58
2023/04/13 07:24:58;;;;;;;4.23;1.43;;;;;;;10.18;65.21;95779.59;5037948;28;20307;-59
2023/04/13 07:27:24;;;;;;;2.87;1.37;;;;;;;10.31;65.52;95789.69;5044375;28;20739;-57
2023/04/13 07:29:52;;;;;;;2.30;1.13;;;;;;;10.48;64.47;95789.59;5054736;28;20200;-58
2023/04/13 07:32:19;;;;;;;1.67;1.17;;;;;;;10.62;63.31;95785.47;5050643;28;20612;-59
2023/04/13 07:34:46;;;;;;;4.33;1.20;;;;;;;10.67;64.97;95784.97;5044051;28;20672;-58
2023/04/13 07:37:12;;;;;;;2.57;1.17;;;;;;;10.74;62.55;95778.84;5050452;28;20199;-58
2023/04/13 07:39:40;;;;;;;3.20;1.10;;;;;;;10.51;63.97;95785.78;5050413;28;20207;-58
2023/04/13 07:42:06;;;;;;;3.20;1.00;;;;;;;10.45;63.80;95789.91;5037263;28;20211;-59
2023/04/13 07:44:33;;;;;;;3.40;1.23;;;;;;;10.31;65.62;95793.16;5042021;28;20211;-59
2023/04/13 07:47:01;;;;;;;2.30;1.03;;;;;;;10.35;64.55;95794.50;5047429;28;20207;-59
2023/04/13 07:49:28;;;;;;;4.93;1.43;;;;;;;10.33;64.08;95803.59;5040295;28;20274;-58
2023/04/13 07:51:54;;;;;;;2.20;1.17;;;;;;;10.14;63.72;95803.81;5051478;28;20199;-59
2023/04/13 07:54:20;;;;;;;4.13;1.23;;;;;;;10.08;64.66;95801.84;5047408;28;20226;-59
2023/04/13 07:56:47;;;;;;;2.10;1.00;;;;;;;9.98;66.26;95802.81;5054931;28;20207;-59
2023/04/13 07:59:13;;;;;;;1.43;0.90;;;;;;;9.71;65.52;95804.81;5057681;28;20217;-57
2023/04/13 08:01:40;;;;;;;4.33;1.13;;;;;;;9.78;65.50;95811.13;5050827;28;20214;-58
2023/04/13 08:04:08;;;;;;;2.60;1.10;;;;;;;9.61;64.15;95804.13;5040756;28;20200;-58
2023/04/13 08:06:34;;;;;;;3.90;1.10;;;;;;;9.59;65.19;95801.66;5053462;28;20207;-57
2023/04/13 08:09:01;;;;;;;2.53;1.00;;;;;;;9.54;65.41;95801.28;5045727;28;20597;-59
2023/04/13 08:11:27;;;;;;;4.83;1.10;;;;;;;9.74;66.63;95800.03;5057105;28;20200;-58
2023/04/13 08:13:54;;;;;;;4.17;1.40;;;;;;;9.80;66.61;95804.72;5060437;28;20218;-58
2023/04/13 08:16:20;;;;;;;2.97;1.30;;;;;;;9.74;63.78;95810.59;5047528;28;20297;-59
2023/04/13 08:18:47;;;;;;;2.23;1.00;;;;;;;9.66;64.73;95813.22;5053399;28;20203;-58
2023/04/13 08:21:16;;;;;;;2.73;1.10;;;;;;;9.74;66.54;95815.88;5048477;28;20204;-57
2023/04/13 08:23:43;;;;;;;1.67;0.80;;;;;;;9.85;65.19;95804.22;5042976;28;20200;-57
2023/04/13 08:26:16;;;;;;;6.57;1.40;;;;;;;9.82;64.89;95810.66;5050806;28;20204;-57
2023/04/13 08:28:43;;;;;;;4.33;1.23;;;;;;;9.69;64.05;95809.44;5062481;28;20642;-57
2023/04/13 08:31:12;;;;;;;2.50;1.03;;;;;;;9.63;65.45;95802.16;5039965;28;20215;-58
2023/04/13 08:33:38;;;;;;;2.27;1.50;;;;;;;9.71;66.17;95808.28;5050194;28;20565;-58
2023/04/13 08:36:06;;;;;;;1.70;0.97;;;;;;;9.83;64.18;95803.56;5038608;28;20231;-58
2023/04/13 08:38:37;;;;;;;2.30;0.90;;;;;;;9.73;60.21;95806.34;5043056;28;20684;-58
2023/04/13 08:41:03;;;;;;;1.43;1.20;;;;;;;9.75;62.92;95812.28;5054148;28;20216;-59
2023/04/13 08:43:32;;;;;;;5.37;2.40;;;;;;;9.60;65.97;95805.91;5041573;28;20302;-58
2023/04/13 08:45:59;;;;;;;1.90;1.40;;;;;;;9.62;62.98;95796.06;5061864;28;20206;-57
2023/04/13 08:48:26;;;;;;;3.33;1.20;;;;;;;9.49;65.67;95806.22;5052179;28;20218;-58
2023/04/13 08:50:53;;;;;;;2.40;1.17;;;;;;;9.54;66.00;95798.63;5058088;28;20269;-58
2023/04/13 08:53:19;;;;;;;3.27;1.30;;;;;;;9.53;62.36;95807.53;5058470;28;20555;-58
2023/04/13 08:55:47;;;;;;;3.33;1.50;;;;;;;9.49;64.35;95807.00;5065756;28;20195;-58
2023/04/13 08:58:18;;;;;;;2.27;1.10;;;;;;;9.52;64.40;95812.97;5055286;28;20203;-57
2023/04/13 09:00:46;;;;;;;2.13;1.20;;;;;;;9.51;65.49;95814.78;5041894;28;20601;-57
2023/04/13 09:03:14;;;;;;;2.57;1.27;;;;;;;9.45;65.36;95805.69;5056217;28;20199;-57
2023/04/13 09:05:41;;;;;;;4.53;1.20;;;;;;;9.47;63.23;95809.00;5044596;28;20229;-57
2023/04/13 09:08:10;;;;;;;1.97;1.27;;;;;;;9.40;64.36;95807.13;5049389;28;20217;-58
2023/04/13 09:10:37;;;;;;;3.10;1.10;;;;;;;9.31;64.62;95803.63;5056854;28;20219;-58
2023/04/13 09:13:05;;;;;;;4.73;1.53;;;;;;;9.31;65.04;95808.09;5042367;28;20240;-58
2023/04/13 09:15:32;;;;;;;6.23;4.80;;;;;;;9.32;68.12;95801.81;5055246;28;20203;-58
2023/04/13 09:18:06;;;;;;;3.60;1.60;;;;;;;9.28;65.18;95811.84;5061285;28;20291;-58
2023/04/13 09:20:33;;;;;;;2.80;1.07;;;;;;;9.23;65.90;95816.78;5059726;28;20194;-57
2023/04/13 09:23:00;;;;;;;4.37;1.17;;;;;;;9.15;66.50;95818.50;5043248;28;20203;-56
2023/04/13 09:25:28;;;;;;;3.37;1.30;;;;;;;9.18;68.69;95805.00;5062633;28;20199;-60
2023/04/13 09:27:55;;;;;;;2.70;1.10;;;;;;;9.31;67.33;95819.47;5046902;28;20203;-58
2023/04/13 09:30:25;;;;;;;2.80;1.27;;;;;;;9.44;66.36;95809.31;5060754;28;20230;-58
2023/04/13 09:33:04;;;;;;;3.53;1.37;;;;;;;9.50;63.48;95802.56;5044697;28;20204;-56
2023/04/13 09:35:31;;;;;;;2.80;1.30;;;;;;;9.56;67.65;95809.06;5048841;28;20241;-56
2023/04/13 09:37:58;;;;;;;2.77;1.50;;;;;;;9.70;64.69;95809.28;5055595;28;20516;-57
2023/04/13 09:40:25;;;;;;;1.80;0.93;;;;;;;9.76;66.01;95813.09;5040547;28;20212;-57
2023/04/13 09:42:55;;;;;;;5.00;1.47;;;;;;;9.82;65.76;95805.38;5042737;28;20218;-58
2023/04/13 09:45:25;;;;;;;2.50;0.93;;;;;;;9.96;66.01;95812.69;5053027;28;20218;-58
2023/04/13 09:47:52;;;;;;;3.67;1.70;;;;;;;9.96;67.77;95810.03;5042247;28;20199;-58
2023/04/13 09:50:23;;;;;;;5.53;2.00;;;;;;;9.87;67.05;95797.81;5038400;28;20234;-59
2023/04/13 09:52:58;;;;;;;6.93;1.87;;;;;;;9.83;66.94;95791.19;5044850;28;20214;-58
2023/04/13 09:55:26;;;;;;;5.77;1.87;;;;;;;9.71;67.14;95802.19;5054370;28;20262;-59
2023/04/13 09:57:52;;;;;;;5.03;1.50;;;;;;;9.72;71.45;95801.19;5051880;28;20316;-58
2023/04/13 10:00:20;;;;;;;6.03;1.20;;;;;;;9.87;73.35;95789.88;5046327;28;20218;-58
2023/04/13 10:02:49;;;;;;;3.73;1.20;;;;;;;10.12;70.10;95788.16;5056216;28;20238;-59
2023/04/13 10:05:16;;;;;;;6.73;1.33;;;;;;;10.86;69.33;95780.19;5038890;28;20266;-58
2023/04/13 10:07:43;;;;;;;3.63;1.00;;;;;;;11.46;64.83;95777.13;5045612;28;20215;-58
2023/04/13 10:10:10;;;;;;;3.33;1.53;;;;;;;11.87;63.06;95776.00;5051684;28;20711;-58
2023/04/13 10:12:39;;;;;;;4.80;1.40;;;;;;;12.22;61.82;95764.06;5038800;28;20308;-58
2023/04/13 10:15:15;;;;;;;2.73;1.17;;;;;;;12.62;60.27;95763.00;5057929;28;20227;-58
2023/04/13 10:17:52;;;;;;;4.47;2.00;;;;;;;12.64;55.12;95763.66;5057039;28;20286;-57
2023/04/13 10:20:19;;;;;;;3.13;1.47;;;;;;;13.16;56.23;95755.78;5040195;28;20290;-58
2023/04/13 10:22:46;;;;;;;3.30;1.20;;;;;;;13.62;48.57;95761.78;5057230;28;20211;-58
2023/04/13 10:25:13;;;;;;;2.33;1.33;;;;;;;13.96;49.21;95754.06;5073360;28;20217;-58
2023/04/13 10:27:40;;;;;;;5.00;1.23;;;;;;;13.87;48.68;95739.22;5048297;28;20212;-58
2023/04/13 10:30:15;;;;;;;4.73;1.70;;;;;;;14.13;45.98;95738.72;5037569;28;20214;-59
2023/04/13 10:32:42;;;;;;;4.33;1.57;;;;;;;14.64;47.46;95747.47;5049770;28;20207;-60
2023/04/13 10:35:12;;;;;;;2.47;1.45;;;;;;;14.95;48.40;95740.00;5056390;28;20258;-59
2023/04/13 10:37:40;;;;;;;3.72;1.38;;;;;;;14.99;47.19;95735.09;5051538;28;20594;-58
2023/04/13 10:40:09;;;;;;;2.20;1.25;;;;;;;14.97;44.70;95736.31;5037043;28;20632;-58
2023/04/13 10:42:41;;;;;;;2.83;0.95;;;;;;;14.86;42.40;95732.34;5037042;28;20578;-58
2023/04/13 10:45:16;;;;;;;3.03;1.30;;;;;;;14.93;43.18;95730.56;5063942;28;20245;-58
2023/04/13 10:47:43;;;;;;;6.22;1.60;;;;;;;14.92;43.54;95719.06;5048590;28;20250;-58
2023/04/13 10:50:17;;;;;;;4.28;1.13;;;;;;;14.95;42.09;95729.34;5045666;28;20210;-63
2023/04/13 10:52:56;;;;;;;3.10;1.02;;;;;;;15.56;40.18;95721.63;5050588;28;20210;-64
2023/04/13 10:55:24;;;;;;;2.45;1.20;;;;;;;16.18;42.50;95715.34;5051103;28;20246;-59
2023/04/13 10:57:50;;;;;;;4.55;1.60;;;;;;;16.11;40.18;95717.16;5046948;28;20287;-59
2023/04/13 11:00:20;;;;;;;3.55;1.30;;;;;;;16.21;38.75;95717.63;5050990;28;20199;-59
2023/04/13 11:02:48;;;;;;;3.85;1.30;;;;;;;15.80;39.28;95717.66;5049850;28;20202;-59
2023/04/13 11:05:15;;;;;;;3.70;1.50;;;;;;;15.32;39.93;95714.06;5051015;28;20651;-59
2023/04/13 11:07:44;;;;;;;2.83;1.13;;;;;;;14.72;40.41;95711.94;5052909;28;20203;-60
2023/04/13 11:10:11;;;;;;;2.65;1.48;;;;;;;14.40;44.32;95713.28;5049650;28;20214;-60
2023/04/13 11:12:38;;;;;;;4.20;1.67;;;;;;;13.99;42.87;95701.53;5048129;28;20196;-59
2023/04/13 11:15:06;;;;;;;2.67;1.50;;;;;;;13.42;44.47;95702.25;5052824;28;20219;-60
2023/04/13 11:17:33;;;;;;;4.47;1.40;;;;;;;13.17;45.61;95698.22;5048561;28;20226;-58
2023/04/13 11:20:00;;;;;;;2.23;1.40;;;;;;;13.31;46.59;95703.53;5049863;28;20202;-59
2023/04/13 11:22:35;;;;;;;6.23;1.73;;;;;;;13.36;47.98;95698.47;5050616;28;20199;-59
2023/04/13 11:25:10;;;;;;;4.43;1.70;;;;;;;13.16;45.68;95699.22;5049731;28;20592;-59
2023/04/13 11:27:37;;;;;;;3.57;1.43;;;;;;;13.17;46.34;95700.88;5045757;28;20206;-59
2023/04/13 11:30:05;;;;;;;4.07;2.03;;;;;;;13.05;47.26;95700.44;5049819;28;20211;-59
2023/04/13 11:32:32;;;;;;;3.90;1.63;;;;;;;13.11;47.13;95697.09;5052291;28;20211;-59
2023/04/13 11:35:06;;;;;;;3.47;1.67;;;;;;;13.22;48.04;95698.47;5046358;28;20248;-58
2023/04/13 11:37:36;;;;;;;5.03;1.70;;;;;;;13.52;46.80;95694.81;5050676;28;20210;-59
2023/04/13 11:40:09;;;;;;;4.03;1.67;;;;;;;13.73;49.11;95697.56;5048356;28;20263;-58
2023/04/13 11:42:39;;;;;;;2.43;1.50;;;;;;;14.07;49.35;95696.09;5047026;28;20218;-58
2023/04/13 11:45:07;;;;;;;3.60;1.53;;;;;;;14.53;49.05;95697.44;5052771;28;20274;-58
2023/04/13 11:47:34;;;;;;;4.13;1.37;;;;;;;14.29;46.92;95695.13;5051020;28;20214;-60
2023/04/13 11:50:01;;;;;;;8.37;2.10;;;;;;;14.49;45.59;95695.38;5050200;28;20203;-60
2023/04/13 11:52:27;;;;;;;2.90;1.60;;;;;;;14.34;45.40;95692.75;5049983;28;20199;-60
2023/04/13 11:54:54;;;;;;;4.43;1.80;;;;;;;14.19;48.34;95690.13;5047048;28;20245;-60